首页
METAR-TAF:

METAR-TAF

机场 :

石油平台

K13-a, 荷兰

纬度: 53-13-04N, 经度: 3-13-13E, 海拔: 31米

当前天气观测

该预报发布于36分钟前的09:25 UTC
风速25节,风向
温度 10°C
湿度 76%
气压 1001 hPa

METAR: EHJR 220925Z AUTO 17025KT //// // ///////// 10/06 Q1001 RE// W12/H19

时间: 11:01 (10:01 UTC)


TAF: 丢失

超过4000个机场的气象观测和天气预报(METAR&TAF报告)。

可查询的气象台以黄色和红色小点在地图上表示。

将鼠标移到小点上方,可查看气象台名称。

然后点击查看天气观测和预报。

如需切换地图:点击带黑十字的绿色按钮放大地图;点击带横线的绿色按钮缩小地图;或者点击绿色箭头查看邻近地区的地图。


METAR-TAF: